Bramon, Sweden

6:30 PM CET on December 21, 2014 (GMT +0100)
Bydalen | Change Station
CLOSE
Current Station
Personal Weather Station
Location: Sundsvall, VASTERNORRLAND
Elevation: 290 ft
Nearby Weather Stations

Elev 290 ft 62.42 °N, 17.33 °E | Updated 19 seconds ago

Patches of Fog
Patches Fog
22.8 °F
Feels Like 23 °F
N
0.0
Wind Variable Wind from North
Gusts 0.0 mph

Today
High -- | Low -- °F
--% Chance of Precip.
Yesterday
High -- | Low -- °F
Precip. -- in
9:15 AM 2:18 PM
Waning Crescent, 0% visible
Pressure 29.47 in
Visibility 0.9 miles
Clouds Mostly Cloudy 1900 ft
Windchill 23 °F
Dew Point 22 °F
Humidity 95%
Rainfall 0.00 in
Snow Depth Not available.
UV 0 out of 12
Pollen Not available.
Air Quality Not available.
Flu Activity Not available.
METAR ESNN 211720Z 32004KT 1500 BCFG BKN019 M06/M06 Q0998 R16/79//46

More Conditions Fewer Conditions

Pressure 29.47 in
Visibility 0.9 miles
Clouds Mostly Cloudy 1900 ft
Windchill 23 °F
Dew Point 22 °F
Humidity 95%
Rainfall 0.00 in
Snow Depth Not available.
UV 0 out of 12
Pollen Not available.
Air Quality Not available.
Flu Activity Not available.
METAR ESNN 211720Z 32004KT 1500 BCFG BKN019 M06/M06 Q0998 R16/79//46

More Conditions Fewer Conditions

10-Day Weather Forecast

Almanac

Astronomy

Dec. 21, 2014 Rise Set
Actual Time
Civil Twilight
Nautical Twilight
Astronomical Twilight
Moon
Length of Visible Light
Length of Day
Tomorrow will be .
, % of the Moon is Illuminated

Today's Extremes

Country Highs Country Lows

Community

WunderPhotos

Upload Photos

1,779,431 photos uploaded!

WunderBlogs® & News

Nearby

Air Quality

  Air Quality AQ Index Pollutant
Not available.

Snow Depth

Station Depth Elevation

Earthquake Activity

City Distance Mag. Time & Date
Minimum magnitude displayed is 2.5.

Coastal Water Temperatures

Place Temperature

Nearby Weather Stations